Aviation Digital Data Service (ADDS)

Output produced by METARs form (1823 UTC 22 November 2017)
found at http://www.aviationweather.gov/adds/metars/
 
LFLB 221800Z AUTO 00000KT CAVOK 04/02 Q1015 NOSIG
TAF LFLB 221700Z 2218/2318 VRB03KT CAVOK 
     BECMG 2302/2305 20008KT
       
LFBZ 221800Z AUTO 20006KT 160V260 CAVOK 18/01 Q1008 NOSIG
TAF LFBZ 221700Z 2218/2318 19010G20KT CAVOK 
     PROB40 
     TEMPO 2221/2306 20020G30KT 
     TEMPO 2316/2318 SCT100TCU
       
LFRT 221800Z AUTO 22016G31KT 170V260 9999 -RA NSC 14/10 Q0995
LFRM 221800Z AUTO 19004KT 160V230 CAVOK 12/05 Q1004 NOSIG
TAF LFRM 221700Z 2218/2303 20010KT CAVOK 
     BECMG 2301/2303 18015G30KT -RA
       
LFLW 221800Z AUTO 11010KT CAVOK 10/06 Q1013
TAF LFLW 221400Z 2215/2224 15012KT CAVOK 
     BECMG 2221/2224 15015G25KT
       
LFLC 221800Z AUTO 18024KT CAVOK 13/06 Q1010 BECMG 18020G30KT
TAF LFLC 221400Z 2215/2315 18018KT CAVOK 
     BECMG 2215/2218 18020G30KT 
     BECMG 2306/2309 18015G25KT 
     BECMG 2312/2315 18010KT
       
LFOA 221800Z AUTO 14005KT CAVOK 10/05 Q1008
TAF LFOA 221400Z 2215/2315 14005KT CAVOK 
     PROB40 2218/2220 16010G20KT 
     BECMG 2303/2306 21015G25KT 
     PROB30 
     TEMPO 2312/2315 22020G30KT 6000 -RA BKN020
       
LFSB 221800Z 17006KT CAVOK 07/03 Q1011 NOSIG
TAF LFSB 221701Z 2218/2318 17005KT CAVOK 
     PROB40 
     TEMPO 2311/2315 23010KT
       
LFQB 221800Z AUTO 16004KT CAVOK 08/03 Q1007
LFBL 221800Z AUTO 14010KT 120V180 CAVOK 12/05 Q1009 NOSIG
TAF LFBL 221700Z 2218/2318 15010KT CAVOK
       
LFBI 221800Z AUTO 18011KT CAVOK 13/04 Q1007 BECMG 19015G25KT
TAF LFBI 221700Z 2218/2318 19015KT CAVOK 
     BECMG 2218/2220 19015G25KT 
     TEMPO 2220/2303 18020G35KT 
     BECMG 2303/2306 22020G35KT -RA BKN030 
     BECMG 2310/2312 22015G25KT NSW 
     BECMG 2316/2318 20012KT
       
LFBO 221800Z AUTO 13012KT CAVOK 13/09 Q1012 TEMPO BKN010
TAF LFBO 221700Z 2218/2324 14012KT CAVOK 
     PROB30 
     TEMPO 2219/2307 BKN010 
     PROB40 
     TEMPO 2322/2324 BKN013
       
LFMH 221800Z AUTO 17008KT CAVOK 10/05 Q1013 NOSIG
TAF LFMH 221400Z 2215/2315 18015KT CAVOK 
     BECMG 2215/2218 18015KT 
     TEMPO 2302/2306 18017G30KT
       
LFAQ 221800Z AUTO 17014KT CAVOK 10/05 Q1002 NOSIG
TAF LFAQ 221400Z 2215/2224 19013KT CAVOK
       
LFOJ 221800Z AUTO 18013KT CAVOK 12/05 Q1005 TEMPO 21015G25KT
TAF LFOJ 221400Z 2215/2315 19010KT CAVOK 
     TEMPO 2217/2224 21015G25KT 
     TEMPO 2300/2309 21025G35KT
       
LFBU 221800Z AUTO 16012KT CAVOK 14/05 Q1008 BECMG 17015G25KT
TAF LFBU 221700Z 2218/2318 17015KT CAVOK 
     BECMG 2218/2220 17015G25KT 
     TEMPO 2220/2303 17020G30KT 
     BECMG 2306/2309 -RA BKN045 
     BECMG 2310/2312 18012KT
       
LFLY 221800Z AUTO 17018KT CAVOK 14/08 Q1013 BECMG 18020G35KT
TAF LFLY 221700Z 2218/2318 18020G35KT CAVOK 
     PROB40 
     TEMPO 2221/2309 18027G45KT SCT020 
     BECMG 2312/2315 18015G25KT
       
LFKJ 221800Z AUTO 03007KT CAVOK 11/09 Q1019 NOSIG
TAF LFKJ 221400Z 2215/2315 VRB03KT 9999 FEW040 
     BECMG 2217/2220 05006KT CAVOK
       
LFMO 221800Z AUTO 16003KT 9999 FEW041 OVC052 14/08 Q1017 NOSIG
TAF LFMO 221400Z 2215/2315 18008KT 9999 BKN040
       
LFRK 221800Z AUTO 17011KT CAVOK 12/05 Q1000 BECMG 18025G35KT
TAF LFRK 221400Z 2215/2224 19020G30KT CAVOK 
     BECMG 2218/2221 18025G35KT 
     BECMG 2221/2224 20030G45KT 
     PROB30 
     TEMPO 2221/2224 5000 RA
       
LFMV 221800Z AUTO 15004KT 9999 FEW037 OVC054 14/08 Q1017 NOSIG
TAF LFMV 221400Z 2215/2315 17012KT 9999 BKN047 
     BECMG 2217/2219 12008KT BKN022 
     BECMG 2303/2306 BKN038 
     BECMG 2311/2314 18010KT NSC
       
LFBC 221800Z AUTO 14006KT CAVOK 12/06 Q1007 NOSIG
TAF LFBC 221400Z 2215/2315 17012KT CAVOK 
     TEMPO 2300/2305 18015G25KT
       
LFLU 221800Z AUTO 18013KT CAVOK 11/07 Q1015
LFPG 221800Z 16008KT CAVOK 11/04 Q1004 NOSIG
TAF LFPG 221700Z 2218/2324 18010KT CAVOK 
     BECMG 2300/2302 19015G25KT 
     TEMPO 2306/2310 21020G35KT 
     BECMG 2316/2318 24005KT 
     BECMG 2321/2323 BKN012 
     PROB30 
     TEMPO 2322/2324 -RA BKN004 TX15/2313Z TN09/2222Z
       
LFBG 221800Z AUTO 14006KT 100V170 CAVOK 12/07 Q1007
TAF LFBG 221400Z 2215/2315 14012KT CAVOK 
     TEMPO 2220/2304 17020G35KT
       
LFOC 221800Z AUTO 18013KT CAVOK 10/05 Q1005 TEMPO 18015G25KT
TAF LFOC 221400Z 2215/2315 17010KT CAVOK 
     PROB30 
     TEMPO 2215/2303 18015G25KT 
     TEMPO 2303/2309 19020G30KT 4900 -SHRA
       
LFPT 221800Z AUTO 13005KT CAVOK 11/04 Q1003
LFMN 221800Z 33005KT CAVOK 12/09 Q1019 NOSIG
TAF LFMN 221400Z 2215/2321 20006KT 9999 SCT040 
     BECMG 2216/2218 33010KT CAVOK 
     PROB40 
     TEMPO 2222/2309 BKN030 
     BECMG 2310/2312 20010KT FEW030 
     BECMG 2317/2319 33010KT
       
LFLX 221800Z AUTO 20006KT CAVOK 10/03 Q1007 NOSIG
TAF LFLX 221700Z 2218/2324 18010KT CAVOK 
     TEMPO 2221/2224 20015G25KT 
     BECMG 2300/2302 20020G32KT 
     BECMG 2316/2318 20012KT
       
LFOV 221800Z AUTO 18008KT CAVOK 12/06 Q1002
LFST 221800Z AUTO 18003KT 170V240 CAVOK 09/05 Q1010 NOSIG
TAF LFST 221700Z 2218/2318 17007KT CAVOK 
     BECMG 2303/2306 20012G22KT
       
LFSN 221800Z AUTO 16007KT CAVOK 09/04 Q1009
LFOE 221800Z AUTO 18015KT CAVOK 11/05 Q1002
TAF LFOE 221400Z 2215/2315 19012KT CAVOK 
     TEMPO 2216/2219 19015G25KT 
     BECMG 2219/2221 19020G30KT 
     TEMPO 2300/2308 19020G40KT 
     TEMPO 2308/2310 BKN010 
     BECMG 2310/2313 24010G20KT
       
LFQG 221800Z AUTO 14006KT CAVOK 10/06 Q1008
LFTW 221800Z AUTO 14011KT 9999 SCT017 SCT024 BKN035 14/11 Q1016 TEMPO RA OVC005
TAF LFTW 221400Z 2215/2315 10003KT 9999 OVC013 
     BECMG 2215/2217 15010KT BKN015 
     TEMPO 2215/2309 RA OVC005
       
LFRB 221800Z AUTO 21023G37KT 7000 -RA FEW017/// BKN022/// BKN029/// ///CB 14/11 Q0994 NOSIG
TAF LFRB 221700Z 2218/2324 20025G39KT 9999 FEW012CB SCT030 BKN036 
     TEMPO 2220/2223 23025G46KT 3000 RA OVC003 
     PROB40 
     TEMPO 2221/2224 TSRA BKN012CB 
     TEMPO 2300/2306 4000 SHRA SCT012CB 
     BECMG 2303/2306 28015G30KT 9999 SCT020 
     BECMG 2309/2312 24010KT 
     TEMPO 2315/2318 4000 SHRA SCT008 FEW012CB 
     TEMPO 2319/2324 20020G30KT 3000 RA OVC010 FEW012CB
       
LFGA 221800Z AUTO 24004KT CAVOK 05/03 Q1011
LFBH 221800Z AUTO 15013KT CAVOK 13/08 Q1005 TEMPO 17015G25KT
TAF LFBH 221700Z 2218/2318 16015KT CAVOK 
     TEMPO 2218/2224 17015G25KT 
     TEMPO 2300/2303 20025G35KT 
     BECMG 2303/2305 24020G30KT -RA BKN040 
     BECMG 2310/2312 22015G25KT 
     BECMG 2314/2316 18012KT CAVOK
       
LFBA 221800Z AUTO 11010KT CAVOK 12/09 Q1010 NOSIG
TAF LFBA 221700Z 2218/2303 12010KT CAVOK 
     BECMG 2222/2224 4500 BR
       
LFRJ 221800Z AUTO 21026G40KT 4200 +RA BR BKN024/// BKN030/// BKN043/// ///CB 14/11 Q0994
TAF LFRJ 221400Z 2215/2224 20030G40KT 9999 SCT020 BKN040 
     PROB30 
     TEMPO 2215/2217 20030G50KT 
     BECMG 2216/2218 8000 RA BKN015 OVC020 
     TEMPO 2220/2224 20030G50KT 4000 +RA OVC012TCU 
     PROB30 
     TEMPO 2220/2224 TSRA BKN012CB
       
LFRH 221800Z AUTO 19017KT CAVOK 16/10 Q0997 BECMG 19025G40KT
TAF AMD LFRH 221730Z 2218/2318 20020G30KT CAVOK 
     BECMG 2218/2220 19025G40KT -RA OVC060 
     BECMG 2221/2223 5000 RA BKN010CB OVC020 
     PROB40 
     TEMPO 2221/2304 20030G50KT 2000 TSRA 
     BECMG 2302/2304 25020G30KT 
     TEMPO 2304/2309 SHRA BKN008CB 
     BECMG 2310/2312 25015KT 9999 NSW SCT025 
     BECMG 2316/2318 15015KT
       
LFRO 221800Z AUTO 19020G35KT 160V220 9999 BKN031 BKN170 OVC200 15/10 Q0994 BECMG 20035G49KT
TAF LFRO 221700Z 2218/2318 20035G49KT 9999 FEW036 SCT110 
     TEMPO 2221/2224 3000 RA OVC005 FEW012CB 
     PROB40 
     TEMPO 2221/2224 2000 TSRA BKN012CB 
     TEMPO 2300/2306 4000 SHRA SCT012CB 
     BECMG 2303/2306 28024KT 9999 SCT020 BKN040 
     TEMPO 2315/2318 4000 SHRA BKN010 FEW012CB
       
LFPB 221800Z AUTO 16004KT 140V200 CAVOK 10/04 Q1004 NOSIG
TAF LFPB 221700Z 2218/2318 18005KT CAVOK 
     BECMG 2300/2302 19015G25KT 
     TEMPO 2306/2310 21020G35KT 
     BECMG 2316/2318 24005KT
       
LFMC 221800Z 00000KT 9999 SCT036 BKN230 09/08 Q1018
LFTH 221800Z AUTO 07004KT 9999 BKN021 BKN026 OVC031 15/11 Q1018 NOSIG
TAF LFTH 221400Z 2215/2315 11008KT 9999 FEW020 BKN040 
     BECMG 2222/2224 02010KT SCT012 BKN018 
     BECMG 2302/2304 BKN012 OVC018 
     BECMG 2310/2313 14006KT SCT025
       
LFAT 221800Z AUTO 16009KT 130V190 CAVOK 12/05 Q0999 TEMPO 20015G25KT
TAF LFAT 221400Z 2215/2224 20012KT CAVOK 
     TEMPO 2218/2224 20015G25KT
       
LFMI 221800Z AUTO 11010KT 9999 FEW023 OVC050 15/10 Q1017 NOSIG
TAF LFMI 221400Z 2215/2315 14015KT 9999 SCT030 BKN035 
     BECMG 2217/2219 10010KT BKN022 
     TEMPO 2222/2303 SCT010 
     BECMG 2306/2308 BKN035 
     BECMG 2311/2313 15010KT CAVOK
       
LFRI 221800Z AUTO 16011KT CAVOK 13/09 Q1004 NOSIG
TAF LFRI 221700Z 2218/2318 17012KT CAVOK 
     BECMG 2220/2222 18020G30KT -RA 
     TEMPO 2302/2307 21020G35KT 4000 RA BKN006 
     PROB30 
     TEMPO 2302/2304 -TSRA BKN015CB 
     BECMG 2309/2311 23015G25KT NSW 
     BECMG 2313/2315 26010KT 
       
LFQQ 221800Z AUTO 17015KT CAVOK 11/05 Q1001 BECMG 18015G25KT
TAF LFQQ 221700Z 2218/2324 18015G25KT CAVOK 
     TEMPO 2310/2312 4000 RA BKN013 
     PROB30 
     TEMPO 2310/2312 TSRA 
     BECMG 2300/2302 18020G30KT 
     BECMG 2309/2311 25013KT 
     BECMG 2320/2323 19007KT
       
LFSD 221800Z AUTO 18006KT CAVOK 09/04 Q1011
LFBT 221800Z AUTO VRB03KT CAVOK 10/03 Q1010 NOSIG
TAF LFBT 221700Z 2218/2318 VRB02KT CAVOK 
     FM230300 18010KT 9999 BKN100 
     PROB40 
     TEMPO 2317/2318 SCT080TCU
       
LFMD 221800Z AUTO 01003KT 7000 NSC 10/08 Q1019 NOSIG
TAF LFMD 221400Z 2215/2315 16006KT 9999 SCT040 
     BECMG 2216/2218 36006KT CAVOK 
     TEMPO 2221/2310 BKN030 
     BECMG 2310/2312 18008KT FEW030
       
LFJR 221800Z AUTO 17007KT CAVOK 12/06 Q1004 NOSIG
TAF LFJR 221400Z 2215/2224 18012KT CAVOK
       
LFCR 221800Z AUTO 13007KT CAVOK 10/07 Q1013 TEMPO 14016G26KT
TAF LFCR 221700Z 2218/2318 14012KT CAVOK 
     PROB30 
     TEMPO 2218/2306 14016G26KT
       
LFRC 221800Z AUTO 19022KT CAVOK 14/07 Q0996 TEMPO RA BECMG 20030G45KT
TAF LFRC 221400Z 2215/2224 21020G30KT CAVOK 
     BECMG 2215/2218 20025G40KT 
     BECMG 2218/2221 20030G45KT 
     TEMPO 2218/2224 5000 RA
       
LFCK 221800Z AUTO 12016KT CAVOK 14/09 Q1013 TEMPO 13024G38KT
TAF LFCK 221700Z 2218/2303 12015KT CAVOK 
     PROB40 
     TEMPO 2218/2303 13024G38KT
       
LFMT 221800Z AUTO 13013KT 9999 SCT032 OVC058 14/13 Q1016 TEMPO RA OVC005
TAF LFMT 221400Z 2215/2315 08006KT 9999 OVC008 
     BECMG 2215/2217 12010KT BKN014 
     TEMPO 2217/2312 RA OVC005 
     BECMG 2300/2302 04005KT OVC010
       
LFBD 221800Z AUTO 15010KT CAVOK 14/08 Q1008 NOSIG
TAF LFBD 221700Z 2218/2324 16008KT CAVOK 
     PROB40 2222/2304 18015G25KT TX19/2314Z TN09/2306Z
       
LFJL 221800Z AUTO 16014KT CAVOK 08/04 Q1009 NOSIG
TAF LFJL 221700Z 2218/2318 17012KT CAVOK 
     BECMG 2220/2223 17015G25KT 
     BECMG 2312/2315 20010KT BKN035
       
LFRV 221800Z AUTO 18011KT CAVOK 15/11 Q0999
LFLP 221800Z AUTO VRB01KT CAVOK 06/01 Q1014 NOSIG
TAF LFLP 221400Z 2215/2315 23005KT CAVOK 
     TEMPO 2218/2223 VRB02KT
       
LFSG 221800Z AUTO 17012KT CAVOK 10/04 Q1009
LFBM 221800Z AUTO 10004KT CAVOK 13/06 Q1009 NOSIG
TAF LFBM 221400Z 2215/2315 10007KT CAVOK
       
LFRZ 221800Z AUTO 18016KT CAVOK 17/10 Q1001 BECMG 18015G25KT
TAF LFRZ 221700Z 2218/2318 18015KT CAVOK 
     BECMG 2218/2220 18015G25KT -RA 
     BECMG 2221/2224 19020G30KT 
     TEMPO 2301/2307 22020G40KT 4000 RA BKN006 
     PROB30 
     TEMPO 2301/2304 -TSRA BKN015CB 
     BECMG 2309/2311 22015G25KT NSW 
     BECMG 2312/2314 27010KT
       
LFRS 221800Z AUTO 17010KT CAVOK 13/10 Q1003 BECMG 18020G30KT
TAF LFRS 221700Z 2218/2324 18012KT CAVOK 
     BECMG 2219/2221 18020G30KT -RA 
     TEMPO 2302/2307 21020G35KT 4000 RA BKN006 
     PROB30 
     TEMPO 2302/2304 -TSRA BKN015CB 
     BECMG 2309/2311 23015G25KT NSW 
     BECMG 2313/2315 27010KT 
     BECMG 2319/2321 19012KT
       
LFSO 221800Z AUTO 17010KT CAVOK 09/05 Q1009
TAF LFSO 221400Z 2215/2315 19008KT CAVOK 
     BECMG 2220/2222 19015G25KT 
     TEMPO 2307/2313 20015G35KT
       
LFOH 221800Z AUTO 16014KT 130V190 CAVOK 14/04 Q1000 BECMG 18020G30KT
TAF LFOH 221100Z 2212/2312 18013KT CAVOK 
     BECMG 2212/2214 18015G25KT 
     BECMG 2216/2218 18020G30KT 
     TEMPO 2300/2306 18030G40KT 
     BECMG 2306/2308 26020G30KT 
     TEMPO 2308/2310 4000 RA BKN013
       
LFPO 221800Z 19006KT CAVOK 12/04 Q1004 NOSIG
TAF LFPO 221700Z 2218/2324 18012KT CAVOK 
     BECMG 2222/2301 18015G25KT 
     TEMPO 2305/2309 20020G35KT 
     PROB30 
     TEMPO 2315/2318 RA BKN012 SCT020TCU 
     BECMG 2316/2318 22010KT
       
LFBP 221800Z AUTO 13006KT 100V170 CAVOK 14/05 Q1009 NOSIG
TAF LFBP 221700Z 2218/2318 10003KT CAVOK 
     BECMG 2303/2305 20010KT 
     PROB40 
     TEMPO 2317/2318 SCT080TCU
       
LFRD 221800Z AUTO 20019KT CAVOK 16/09 Q0997 TEMPO RA BECMG 20030G45KT
TAF LFRD 221700Z 2218/2318 20025G40KT CAVOK 
     BECMG 2218/2222 20030G45KT BKN030 
     TEMPO 2218/2223 5000 RA 
     TEMPO 2223/2304 4000 RA BKN012 SCT015CB 
     PROB30 
     TEMPO 2223/2304 3000 TSRA BKN015CB 
     TEMPO 2304/2310 5000 RA BKN010 
     BECMG 2303/2306 27018G28KT 
     BECMG 2309/2312 24010KT 
     BECMG 2315/2318 17008KT
       
LFRU 221800Z AUTO 17025G45KT 140V200 9999 OVC029/// ///CB 16/11 Q0994
LFRQ 221800Z AUTO 20013G25KT CAVOK 15/11 Q0996 BECMG 19025G41KT 4000 RA SCT014CB BKN028
TAF LFRQ 221700Z 2218/2303 18020G32KT 9999 SCT040 OVC060 
     BECMG 2218/2221 19025G41KT 4000 RA SCT014CB BKN028 
     PROB40 
     TEMPO 2221/2224 2000 TSRA BKN012CB
       
LFKB 221800Z 24003KT 9999 FEW033 SCT250 10/08 Q1019 NOSIG
TAF LFKB 221400Z 2215/2315 04006KT 9999 FEW030 
     BECMG 2219/2221 24004KT 
     BECMG 2309/2311 14010KT TX17/2311Z TN08/2304Z
       
LFRL 221800Z AUTO 21018G28KT 9999 FEW032/// BKN045/// BKN054/// ///CB 14/12 Q0994 TEMPO 20030G45KT 0500 TSRA FG
TAF LFRL 221400Z 2215/2224 19025G35KT CAVOK 
     BECMG 2215/2216 3000 RA BKN015 OVC025 
     TEMPO 2217/2224 2000 SHRA BKN015 OVC025CB 
     PROB40 
     TEMPO 2217/2224 20030G45KT 0500 TSRA FG OVC015CB
       
LFML 221800Z AUTO 11008KT 9999 FEW030 SCT038 BKN048 15/09 Q1017 NOSIG
TAF LFML 221400Z 2215/2321 14012KT 9999 SCT037 BKN044 
     BECMG 2217/2219 11010KT BKN021 
     PROB30 
     TEMPO 2222/2301 BKN009 
     BECMG 2302/2303 BKN038 
     BECMG 2311/2312 17010KT NSC 
     BECMG 2317/2320 07005KT TX18/2313Z TN12/2306Z
       
LFQA 221800Z AUTO 18009KT 140V240 CAVOK 13/04 Q1006
LFMP 221800Z AUTO 26004KT 9000 NSC 10/09 Q1013 BECMG BKN013 BKN021
TAF AMD LFMP 221533Z 2215/2315 VRB05KT CAVOK 
     BECMG 2215/2217 BKN013 BKN021 
     TEMPO 2223/2307 1200 BR VV/// 
     BECMG 2313/2315 CAVOK
       
LFSI 221800Z AUTO 16008KT CAVOK 11/05 Q1008
TAF LFSI 221400Z 2215/2315 17010KT CAVOK 
     BECMG 2304/2306 18015G25KT
       
LFBE 221800Z AUTO 14007KT CAVOK 12/09 Q1010 NOSIG
TAF LFBE 221700Z 2218/2318 16012KT CAVOK 
     TEMPO 2220/2306 16015G30KT
       
LFKC 221800Z AUTO VRB02KT 9999 BKN029 BKN034 13/10 Q1019 NOSIG
TAF LFKC 221400Z 2215/2315 35006KT CAVOK 
     TEMPO 2218/2221 BKN030 
     BECMG 2219/2221 18003KT 
     BECMG 2309/2311 35006KT TX17/2312Z TN08/2304Z
       
LFLL 221800Z 18012KT CAVOK 13/07 Q1014 BECMG 18015G25KT
TAF LFLL 221700Z 2218/2324 18015G25KT CAVOK 
     TEMPO 2218/2315 18020G35KT 
     PROB40 
     TEMPO 2221/2309 18030G45KT
       
LFLS 221800Z AUTO 24013KT 210V270 CAVOK 11/06 Q1015 NOSIG
TAF LFLS 221400Z 2215/2315 23013KT CAVOK 
     PROB40 
     TEMPO 2220/2303 23015G25KT BKN020 
     PROB30 
     TEMPO 2310/2314 23015G25KT
       
LFSX 221800Z AUTO 06004KT CAVOK 08/04 Q1011
TAF LFSX 221400Z 2215/2315 16007KT CAVOK
       
LFLN 221800Z AUTO 16013KT CAVOK 13/05 Q1010 NOSIG
TAF LFLN 221705Z 2218/2303 16005KT CAVOK 
     BECMG 2218/2221 17015KT 
     TEMPO 2221/2303 17018G30KT
       
LFMY 221800Z AUTO 13004KT 100V160 9999 OVC050 15/09 Q1017 NOSIG
TAF LFMY 221400Z 2215/2315 16010KT 9999 SCT030 SCT040 
     BECMG 2216/2218 10010KT
       
LFMK 221800Z AUTO 09010KT 9000 BKN010 BKN014 BKN028 14/12 Q1013 BECMG BKN020
TAF LFMK 221400Z 2215/2315 10014KT 9999 FEW023 
     BECMG 2215/2217 BKN020 
     TEMPO 2220/2306 1500 BR VV///
       
LFKS 221800Z AUTO 28004KT 240V320 CAVOK 12/08 Q1019
TAF LFKS 221400Z 2215/2315 27005KT 9999 FEW030
       
LFAQ 221800Z AUTO 17014KT CAVOK 10/05 Q1002 NOSIG
TAF LFAQ 221400Z 2215/2224 19013KT CAVOK
       
LFAT 221800Z AUTO 16009KT 130V190 CAVOK 12/05 Q0999 TEMPO 20015G25KT
TAF LFAT 221400Z 2215/2224 20012KT CAVOK 
     TEMPO 2218/2224 20015G25KT
       
LFBA 221800Z AUTO 11010KT CAVOK 12/09 Q1010 NOSIG
TAF LFBA 221700Z 2218/2303 12010KT CAVOK 
     BECMG 2222/2224 4500 BR
       
LFBC 221800Z AUTO 14006KT CAVOK 12/06 Q1007 NOSIG
TAF LFBC 221400Z 2215/2315 17012KT CAVOK 
     TEMPO 2300/2305 18015G25KT
       
LFBD 221800Z AUTO 15010KT CAVOK 14/08 Q1008 NOSIG
TAF LFBD 221700Z 2218/2324 16008KT CAVOK 
     PROB40 2222/2304 18015G25KT TX19/2314Z TN09/2306Z
       
LFBE 221800Z AUTO 14007KT CAVOK 12/09 Q1010 NOSIG
TAF LFBE 221700Z 2218/2318 16012KT CAVOK 
     TEMPO 2220/2306 16015G30KT
       
LFBG 221800Z AUTO 14006KT 100V170 CAVOK 12/07 Q1007
TAF LFBG 221400Z 2215/2315 14012KT CAVOK 
     TEMPO 2220/2304 17020G35KT
       
LFBH 221800Z AUTO 15013KT CAVOK 13/08 Q1005 TEMPO 17015G25KT
TAF LFBH 221700Z 2218/2318 16015KT CAVOK 
     TEMPO 2218/2224 17015G25KT 
     TEMPO 2300/2303 20025G35KT 
     BECMG 2303/2305 24020G30KT -RA BKN040 
     BECMG 2310/2312 22015G25KT 
     BECMG 2314/2316 18012KT CAVOK
       
LFBI 221800Z AUTO 18011KT CAVOK 13/04 Q1007 BECMG 19015G25KT
TAF LFBI 221700Z 2218/2318 19015KT CAVOK 
     BECMG 2218/2220 19015G25KT 
     TEMPO 2220/2303 18020G35KT 
     BECMG 2303/2306 22020G35KT -RA BKN030 
     BECMG 2310/2312 22015G25KT NSW 
     BECMG 2316/2318 20012KT
       
LFBL 221800Z AUTO 14010KT 120V180 CAVOK 12/05 Q1009 NOSIG
TAF LFBL 221700Z 2218/2318 15010KT CAVOK
       
LFBM 221800Z AUTO 10004KT CAVOK 13/06 Q1009 NOSIG
TAF LFBM 221400Z 2215/2315 10007KT CAVOK
       
LFBO 221800Z AUTO 13012KT CAVOK 13/09 Q1012 TEMPO BKN010
TAF LFBO 221700Z 2218/2324 14012KT CAVOK 
     PROB30 
     TEMPO 2219/2307 BKN010 
     PROB40 
     TEMPO 2322/2324 BKN013
       
LFBP 221800Z AUTO 13006KT 100V170 CAVOK 14/05 Q1009 NOSIG
TAF LFBP 221700Z 2218/2318 10003KT CAVOK 
     BECMG 2303/2305 20010KT 
     PROB40 
     TEMPO 2317/2318 SCT080TCU
       
LFBT 221800Z AUTO VRB03KT CAVOK 10/03 Q1010 NOSIG
TAF LFBT 221700Z 2218/2318 VRB02KT CAVOK 
     FM230300 18010KT 9999 BKN100 
     PROB40 
     TEMPO 2317/2318 SCT080TCU
       
LFBU 221800Z AUTO 16012KT CAVOK 14/05 Q1008 BECMG 17015G25KT
TAF LFBU 221700Z 2218/2318 17015KT CAVOK 
     BECMG 2218/2220 17015G25KT 
     TEMPO 2220/2303 17020G30KT 
     BECMG 2306/2309 -RA BKN045 
     BECMG 2310/2312 18012KT
       
LFBY 221800Z AUTO 35003KT 9999 // ////// 13/04 Q1009
LFBZ 221800Z AUTO 20006KT 160V260 CAVOK 18/01 Q1008 NOSIG
TAF LFBZ 221700Z 2218/2318 19010G20KT CAVOK 
     PROB40 
     TEMPO 2221/2306 20020G30KT 
     TEMPO 2316/2318 SCT100TCU
       
LFCK 221800Z AUTO 12016KT CAVOK 14/09 Q1013 TEMPO 13024G38KT
TAF LFCK 221700Z 2218/2303 12015KT CAVOK 
     PROB40 
     TEMPO 2218/2303 13024G38KT
       
LFCR 221800Z AUTO 13007KT CAVOK 10/07 Q1013 TEMPO 14016G26KT
TAF LFCR 221700Z 2218/2318 14012KT CAVOK 
     PROB30 
     TEMPO 2218/2306 14016G26KT
       
LFGA 221800Z AUTO 24004KT CAVOK 05/03 Q1011
LFGJ 221800Z AUTO 19014KT CAVOK 12/07 Q1011 BECMG 19018G30KT
TAF LFGJ 221401Z 2215/2224 21012KT CAVOK 
     BECMG 2218/2221 19018G30KT
       
LFJL 221800Z AUTO 16014KT CAVOK 08/04 Q1009 NOSIG
TAF LFJL 221700Z 2218/2318 17012KT CAVOK 
     BECMG 2220/2223 17015G25KT 
     BECMG 2312/2315 20010KT BKN035
       
LFJR 221800Z AUTO 17007KT CAVOK 12/06 Q1004 NOSIG
TAF LFJR 221400Z 2215/2224 18012KT CAVOK
       
LFKB 221800Z 24003KT 9999 FEW033 SCT250 10/08 Q1019 NOSIG
TAF LFKB 221400Z 2215/2315 04006KT 9999 FEW030 
     BECMG 2219/2221 24004KT 
     BECMG 2309/2311 14010KT TX17/2311Z TN08/2304Z
       
LFKC 221800Z AUTO VRB02KT 9999 BKN029 BKN034 13/10 Q1019 NOSIG
TAF LFKC 221400Z 2215/2315 35006KT CAVOK 
     TEMPO 2218/2221 BKN030 
     BECMG 2219/2221 18003KT 
     BECMG 2309/2311 35006KT TX17/2312Z TN08/2304Z
       
LFKF 221800Z AUTO 05006KT CAVOK 11/09 Q1019 TEMPO BKN014
TAF LFKF 221400Z 2215/2315 21010KT 9999 FEW030 
     TEMPO 2218/2309 BKN014 
     BECMG 2218/2221 04010KT
       
LFKJ 221800Z AUTO 03007KT CAVOK 11/09 Q1019 NOSIG
TAF LFKJ 221400Z 2215/2315 VRB03KT 9999 FEW040 
     BECMG 2217/2220 05006KT CAVOK
       
LFKS 221800Z AUTO 28004KT 240V320 CAVOK 12/08 Q1019
TAF LFKS 221400Z 2215/2315 27005KT 9999 FEW030
       
LFLB 221800Z AUTO 00000KT CAVOK 04/02 Q1015 NOSIG
TAF LFLB 221700Z 2218/2318 VRB03KT CAVOK 
     BECMG 2302/2305 20008KT
       
LFLC 221800Z AUTO 18024KT CAVOK 13/06 Q1010 BECMG 18020G30KT
TAF LFLC 221400Z 2215/2315 18018KT CAVOK 
     BECMG 2215/2218 18020G30KT 
     BECMG 2306/2309 18015G25KT 
     BECMG 2312/2315 18010KT
       
LFLL 221800Z 18012KT CAVOK 13/07 Q1014 BECMG 18015G25KT
TAF LFLL 221700Z 2218/2324 18015G25KT CAVOK 
     TEMPO 2218/2315 18020G35KT 
     PROB40 
     TEMPO 2221/2309 18030G45KT
       
LFLN 221800Z AUTO 16013KT CAVOK 13/05 Q1010 NOSIG
TAF LFLN 221705Z 2218/2303 16005KT CAVOK 
     BECMG 2218/2221 17015KT 
     TEMPO 2221/2303 17018G30KT
       
LFLP 221800Z AUTO VRB01KT CAVOK 06/01 Q1014 NOSIG
TAF LFLP 221400Z 2215/2315 23005KT CAVOK 
     TEMPO 2218/2223 VRB02KT
       
LFLS 221800Z AUTO 24013KT 210V270 CAVOK 11/06 Q1015 NOSIG
TAF LFLS 221400Z 2215/2315 23013KT CAVOK 
     PROB40 
     TEMPO 2220/2303 23015G25KT BKN020 
     PROB30 
     TEMPO 2310/2314 23015G25KT
       
LFLU 221800Z AUTO 18013KT CAVOK 11/07 Q1015
LFLW 221800Z AUTO 11010KT CAVOK 10/06 Q1013
TAF LFLW 221400Z 2215/2224 15012KT CAVOK 
     BECMG 2221/2224 15015G25KT
       
LFLX 221800Z AUTO 20006KT CAVOK 10/03 Q1007 NOSIG
TAF LFLX 221700Z 2218/2324 18010KT CAVOK 
     TEMPO 2221/2224 20015G25KT 
     BECMG 2300/2302 20020G32KT 
     BECMG 2316/2318 20012KT
       
LFLY 221800Z AUTO 17018KT CAVOK 14/08 Q1013 BECMG 18020G35KT
TAF LFLY 221700Z 2218/2318 18020G35KT CAVOK 
     PROB40 
     TEMPO 2221/2309 18027G45KT SCT020 
     BECMG 2312/2315 18015G25KT
       
LFMC 221800Z 00000KT 9999 SCT036 BKN230 09/08 Q1018
LFMD 221800Z AUTO 01003KT 7000 NSC 10/08 Q1019 NOSIG
TAF LFMD 221400Z 2215/2315 16006KT 9999 SCT040 
     BECMG 2216/2218 36006KT CAVOK 
     TEMPO 2221/2310 BKN030 
     BECMG 2310/2312 18008KT FEW030
       
LFMH 221800Z AUTO 17008KT CAVOK 10/05 Q1013 NOSIG
TAF LFMH 221400Z 2215/2315 18015KT CAVOK 
     BECMG 2215/2218 18015KT 
     TEMPO 2302/2306 18017G30KT
       
LFMI 221800Z AUTO 11010KT 9999 FEW023 OVC050 15/10 Q1017 NOSIG
TAF LFMI 221400Z 2215/2315 14015KT 9999 SCT030 BKN035 
     BECMG 2217/2219 10010KT BKN022 
     TEMPO 2222/2303 SCT010 
     BECMG 2306/2308 BKN035 
     BECMG 2311/2313 15010KT CAVOK
       
LFMK 221800Z AUTO 09010KT 9000 BKN010 BKN014 BKN028 14/12 Q1013 BECMG BKN020
TAF LFMK 221400Z 2215/2315 10014KT 9999 FEW023 
     BECMG 2215/2217 BKN020 
     TEMPO 2220/2306 1500 BR VV///
       
LFML 221800Z AUTO 11008KT 9999 FEW030 SCT038 BKN048 15/09 Q1017 NOSIG
TAF LFML 221400Z 2215/2321 14012KT 9999 SCT037 BKN044 
     BECMG 2217/2219 11010KT BKN021 
     PROB30 
     TEMPO 2222/2301 BKN009 
     BECMG 2302/2303 BKN038 
     BECMG 2311/2312 17010KT NSC 
     BECMG 2317/2320 07005KT TX18/2313Z TN12/2306Z
       
LFMN 221800Z 33005KT CAVOK 12/09 Q1019 NOSIG
TAF LFMN 221400Z 2215/2321 20006KT 9999 SCT040 
     BECMG 2216/2218 33010KT CAVOK 
     PROB40 
     TEMPO 2222/2309 BKN030 
     BECMG 2310/2312 20010KT FEW030 
     BECMG 2317/2319 33010KT
       
LFMO 221800Z AUTO 16003KT 9999 FEW041 OVC052 14/08 Q1017 NOSIG
TAF LFMO 221400Z 2215/2315 18008KT 9999 BKN040
       
LFMP 221800Z AUTO 26004KT 9000 NSC 10/09 Q1013 BECMG BKN013 BKN021
TAF AMD LFMP 221533Z 2215/2315 VRB05KT CAVOK 
     BECMG 2215/2217 BKN013 BKN021 
     TEMPO 2223/2307 1200 BR VV/// 
     BECMG 2313/2315 CAVOK
       
LFMT 221800Z AUTO 13013KT 9999 SCT032 OVC058 14/13 Q1016 TEMPO RA OVC005
TAF LFMT 221400Z 2215/2315 08006KT 9999 OVC008 
     BECMG 2215/2217 12010KT BKN014 
     TEMPO 2217/2312 RA OVC005 
     BECMG 2300/2302 04005KT OVC010
       
LFMU 221800Z AUTO 10011KT 9999 BKN030 BKN038 OVC046 15/13 Q1015 NOSIG
TAF LFMU 221400Z 2215/2315 08012KT 9999 OVC008 
     BECMG 2215/2217 12015KT BKN015 
     TEMPO 2300/2312 RA OVC005 
     BECMG 2304/2306 09005KT
       
LFMV 221800Z AUTO 15004KT 9999 FEW037 OVC054 14/08 Q1017 NOSIG
TAF LFMV 221400Z 2215/2315 17012KT 9999 BKN047 
     BECMG 2217/2219 12008KT BKN022 
     BECMG 2303/2306 BKN038 
     BECMG 2311/2314 18010KT NSC
       
LFMY 221800Z AUTO 13004KT 100V160 9999 OVC050 15/09 Q1017 NOSIG
TAF LFMY 221400Z 2215/2315 16010KT 9999 SCT030 SCT040 
     BECMG 2216/2218 10010KT
       
LFOA 221800Z AUTO 14005KT CAVOK 10/05 Q1008
TAF LFOA 221400Z 2215/2315 14005KT CAVOK 
     PROB40 2218/2220 16010G20KT 
     BECMG 2303/2306 21015G25KT 
     PROB30 
     TEMPO 2312/2315 22020G30KT 6000 -RA BKN020
       
LFOB 221800Z AUTO 16010KT CAVOK 10/05 Q1003 NOSIG
TAF LFOB 221700Z 2218/2318 18010KT CAVOK 
     TEMPO 2313/2315 4000 RA BKN013 
     BECMG 2300/2303 19020G30KT 
     BECMG 2308/2310 23015G25KT 
     BECMG 2313/2315 26007KT
       
LFOC 221800Z AUTO 18013KT CAVOK 10/05 Q1005 TEMPO 18015G25KT
TAF LFOC 221400Z 2215/2315 17010KT CAVOK 
     PROB30 
     TEMPO 2215/2303 18015G25KT 
     TEMPO 2303/2309 19020G30KT 4900 -SHRA
       
LFOE 221800Z AUTO 18015KT CAVOK 11/05 Q1002
TAF LFOE 221400Z 2215/2315 19012KT CAVOK 
     TEMPO 2216/2219 19015G25KT 
     BECMG 2219/2221 19020G30KT 
     TEMPO 2300/2308 19020G40KT 
     TEMPO 2308/2310 BKN010 
     BECMG 2310/2313 24010G20KT
       
LFOH 221800Z AUTO 16014KT 130V190 CAVOK 14/04 Q1000 BECMG 18020G30KT
TAF LFOH 221100Z 2212/2312 18013KT CAVOK 
     BECMG 2212/2214 18015G25KT 
     BECMG 2216/2218 18020G30KT 
     TEMPO 2300/2306 18030G40KT 
     BECMG 2306/2308 26020G30KT 
     TEMPO 2308/2310 4000 RA BKN013
       
LFOJ 221800Z AUTO 18013KT CAVOK 12/05 Q1005 TEMPO 21015G25KT
TAF LFOJ 221400Z 2215/2315 19010KT CAVOK 
     TEMPO 2217/2224 21015G25KT 
     TEMPO 2300/2309 21025G35KT
       
LFOK 221800Z AUTO 17013KT CAVOK 09/03 Q1006 NOSIG
TAF LFOK 221700Z 2218/2318 17012KT CAVOK 
     BECMG 2223/2301 18015G25KT 
     TEMPO 2304/2315 20020G30KT 
     BECMG 2315/2318 21013KT
       
LFOP 221800Z AUTO 17012KT CAVOK 10/05 Q1002 NOSIG
TAF LFOP 221700Z 2218/2318 19010KT CAVOK 
     BECMG 2302/2304 20020G30KT 
     BECMG 2308/2311 26010KT 
     TEMPO 2310/2312 4000 RA BKN013 
     PROB30 
     TEMPO 2310/2312 TSRA
       
LFOT 221800Z AUTO 18010KT CAVOK 13/04 Q1005 NOSIG
TAF LFOT 221700Z 2218/2318 18010KT CAVOK 
     BECMG 2221/2224 19018G30KT 
     TEMPO 2306/2313 4000 -RA BKN012 SCT020TCU 
     BECMG 2314/2316 20010KT 
     PROB30 
     TEMPO 2314/2318 -SHRA SCT020TCU
       
LFOV 221800Z AUTO 18008KT CAVOK 12/06 Q1002
LFPB 221800Z AUTO 16004KT 140V200 CAVOK 10/04 Q1004 NOSIG
TAF LFPB 221700Z 2218/2318 18005KT CAVOK 
     BECMG 2300/2302 19015G25KT 
     TEMPO 2306/2310 21020G35KT 
     BECMG 2316/2318 24005KT
       
LFPG 221800Z 16008KT CAVOK 11/04 Q1004 NOSIG
TAF LFPG 221700Z 2218/2324 18010KT CAVOK 
     BECMG 2300/2302 19015G25KT 
     TEMPO 2306/2310 21020G35KT 
     BECMG 2316/2318 24005KT 
     BECMG 2321/2323 BKN012 
     PROB30 
     TEMPO 2322/2324 -RA BKN004 TX15/2313Z TN09/2222Z
       
LFPM 221800Z AUTO 15009KT CAVOK 10/05 Q1005
LFPN 221800Z AUTO 19011KT CAVOK 12/05 Q1004 TEMPO 18015G25KT
TAF LFPN 221700Z 2218/2303 18012KT CAVOK 
     TEMPO 2218/2224 18015G25KT 
     TEMPO 2300/2303 19015G30KT
       
LFPO 221800Z 19006KT CAVOK 12/04 Q1004 NOSIG
TAF LFPO 221700Z 2218/2324 18012KT CAVOK 
     BECMG 2222/2301 18015G25KT 
     TEMPO 2305/2309 20020G35KT 
     PROB30 
     TEMPO 2315/2318 RA BKN012 SCT020TCU 
     BECMG 2316/2318 22010KT
       
LFPT 221800Z AUTO 13005KT CAVOK 11/04 Q1003
LFPV 221800Z AUTO 18010KT CAVOK 12/04 Q1004 NOSIG
TAF LFPV 221400Z 2215/2315 19010KT CAVOK 
     BECMG 2220/2222 19015G25KT 
     TEMPO 2303/2312 21015G35KT
       
LFQA 221800Z AUTO 18009KT 140V240 CAVOK 13/04 Q1006
LFQB 221800Z AUTO 16004KT CAVOK 08/03 Q1007
LFQG 221800Z AUTO 14006KT CAVOK 10/06 Q1008
LFQQ 221800Z AUTO 17015KT CAVOK 11/05 Q1001 BECMG 18015G25KT
TAF LFQQ 221700Z 2218/2324 18015G25KT CAVOK 
     TEMPO 2310/2312 4000 RA BKN013 
     PROB30 
     TEMPO 2310/2312 TSRA 
     BECMG 2300/2302 18020G30KT 
     BECMG 2309/2311 25013KT 
     BECMG 2320/2323 19007KT
       
LFRB 221800Z AUTO 21023G37KT 7000 -RA FEW017/// BKN022/// BKN029/// ///CB 14/11 Q0994 NOSIG
TAF LFRB 221700Z 2218/2324 20025G39KT 9999 FEW012CB SCT030 BKN036 
     TEMPO 2220/2223 23025G46KT 3000 RA OVC003 
     PROB40 
     TEMPO 2221/2224 TSRA BKN012CB 
     TEMPO 2300/2306 4000 SHRA SCT012CB 
     BECMG 2303/2306 28015G30KT 9999 SCT020 
     BECMG 2309/2312 24010KT 
     TEMPO 2315/2318 4000 SHRA SCT008 FEW012CB 
     TEMPO 2319/2324 20020G30KT 3000 RA OVC010 FEW012CB
       
LFRC 221800Z AUTO 19022KT CAVOK 14/07 Q0996 TEMPO RA BECMG 20030G45KT
TAF LFRC 221400Z 2215/2224 21020G30KT CAVOK 
     BECMG 2215/2218 20025G40KT 
     BECMG 2218/2221 20030G45KT 
     TEMPO 2218/2224 5000 RA
       
LFRD 221800Z AUTO 20019KT CAVOK 16/09 Q0997 TEMPO RA BECMG 20030G45KT
TAF LFRD 221700Z 2218/2318 20025G40KT CAVOK 
     BECMG 2218/2222 20030G45KT BKN030 
     TEMPO 2218/2223 5000 RA 
     TEMPO 2223/2304 4000 RA BKN012 SCT015CB 
     PROB30 
     TEMPO 2223/2304 3000 TSRA BKN015CB 
     TEMPO 2304/2310 5000 RA BKN010 
     BECMG 2303/2306 27018G28KT 
     BECMG 2309/2312 24010KT 
     BECMG 2315/2318 17008KT
       
LFRG 221800Z AUTO 19011KT 170V230 CAVOK 12/04 Q1000 BECMG 18020G32KT
TAF LFRG 221400Z 2215/2224 18015G25KT CAVOK 
     BECMG 2215/2218 18020G32KT 
     BECMG 2221/2224 20025G40KT
       
LFRH 221800Z AUTO 19017KT CAVOK 16/10 Q0997 BECMG 19025G40KT
TAF AMD LFRH 221730Z 2218/2318 20020G30KT CAVOK 
     BECMG 2218/2220 19025G40KT -RA OVC060 
     BECMG 2221/2223 5000 RA BKN010CB OVC020 
     PROB40 
     TEMPO 2221/2304 20030G50KT 2000 TSRA 
     BECMG 2302/2304 25020G30KT 
     TEMPO 2304/2309 SHRA BKN008CB 
     BECMG 2310/2312 25015KT 9999 NSW SCT025 
     BECMG 2316/2318 15015KT
       
LFRI 221800Z AUTO 16011KT CAVOK 13/09 Q1004 NOSIG
TAF LFRI 221700Z 2218/2318 17012KT CAVOK 
     BECMG 2220/2222 18020G30KT -RA 
     TEMPO 2302/2307 21020G35KT 4000 RA BKN006 
     PROB30 
     TEMPO 2302/2304 -TSRA BKN015CB 
     BECMG 2309/2311 23015G25KT NSW 
     BECMG 2313/2315 26010KT 
       
LFRJ 221800Z AUTO 21026G40KT 4200 +RA BR BKN024/// BKN030/// BKN043/// ///CB 14/11 Q0994
TAF LFRJ 221400Z 2215/2224 20030G40KT 9999 SCT020 BKN040 
     PROB30 
     TEMPO 2215/2217 20030G50KT 
     BECMG 2216/2218 8000 RA BKN015 OVC020 
     TEMPO 2220/2224 20030G50KT 4000 +RA OVC012TCU 
     PROB30 
     TEMPO 2220/2224 TSRA BKN012CB
       
LFRK 221800Z AUTO 17011KT CAVOK 12/05 Q1000 BECMG 18025G35KT
TAF LFRK 221400Z 2215/2224 19020G30KT CAVOK 
     BECMG 2218/2221 18025G35KT 
     BECMG 2221/2224 20030G45KT 
     PROB30 
     TEMPO 2221/2224 5000 RA
       
LFRL 221800Z AUTO 21018G28KT 9999 FEW032/// BKN045/// BKN054/// ///CB 14/12 Q0994 TEMPO 20030G45KT 0500 TSRA FG
TAF LFRL 221400Z 2215/2224 19025G35KT CAVOK 
     BECMG 2215/2216 3000 RA BKN015 OVC025 
     TEMPO 2217/2224 2000 SHRA BKN015 OVC025CB 
     PROB40 
     TEMPO 2217/2224 20030G45KT 0500 TSRA FG OVC015CB
       
LFRM 221800Z AUTO 19004KT 160V230 CAVOK 12/05 Q1004 NOSIG
TAF LFRM 221700Z 2218/2303 20010KT CAVOK 
     BECMG 2301/2303 18015G30KT -RA
       
LFRN 221800Z AUTO 17012KT CAVOK 14/09 Q1000 TEMPO RA BECMG 18017G27KT
TAF LFRN 221700Z 2218/2318 18017G27KT CAVOK 
     BECMG 2221/2224 18025G40KT BKN030 
     TEMPO 2219/2224 5000 RA 
     TEMPO 2300/2304 20030G45KT 3000 TSRA BKN015CB 
     TEMPO 2304/2311 5000 RA BKN010 
     BECMG 2303/2306 23015G25KT 
     BECMG 2309/2312 26010KT 
     BECMG 2315/2318 17005KT
       
LFRO 221800Z AUTO 19020G35KT 160V220 9999 BKN031 BKN170 OVC200 15/10 Q0994 BECMG 20035G49KT
TAF LFRO 221700Z 2218/2318 20035G49KT 9999 FEW036 SCT110 
     TEMPO 2221/2224 3000 RA OVC005 FEW012CB 
     PROB40 
     TEMPO 2221/2224 2000 TSRA BKN012CB 
     TEMPO 2300/2306 4000 SHRA SCT012CB 
     BECMG 2303/2306 28024KT 9999 SCT020 BKN040 
     TEMPO 2315/2318 4000 SHRA BKN010 FEW012CB
       
LFRQ 221800Z AUTO 20013G25KT CAVOK 15/11 Q0996 BECMG 19025G41KT 4000 RA SCT014CB BKN028
TAF LFRQ 221700Z 2218/2303 18020G32KT 9999 SCT040 OVC060 
     BECMG 2218/2221 19025G41KT 4000 RA SCT014CB BKN028 
     PROB40 
     TEMPO 2221/2224 2000 TSRA BKN012CB
       
LFRS 221800Z AUTO 17010KT CAVOK 13/10 Q1003 BECMG 18020G30KT
TAF LFRS 221700Z 2218/2324 18012KT CAVOK 
     BECMG 2219/2221 18020G30KT -RA 
     TEMPO 2302/2307 21020G35KT 4000 RA BKN006 
     PROB30 
     TEMPO 2302/2304 -TSRA BKN015CB 
     BECMG 2309/2311 23015G25KT NSW 
     BECMG 2313/2315 27010KT 
     BECMG 2319/2321 19012KT
       
LFRT 221800Z AUTO 22016G31KT 170V260 9999 -RA NSC 14/10 Q0995
LFRU 221800Z AUTO 17025G45KT 140V200 9999 OVC029/// ///CB 16/11 Q0994
LFRV 221800Z AUTO 18011KT CAVOK 15/11 Q0999
LFRZ 221800Z AUTO 18016KT CAVOK 17/10 Q1001 BECMG 18015G25KT
TAF LFRZ 221700Z 2218/2318 18015KT CAVOK 
     BECMG 2218/2220 18015G25KT -RA 
     BECMG 2221/2224 19020G30KT 
     TEMPO 2301/2307 22020G40KT 4000 RA BKN006 
     PROB30 
     TEMPO 2301/2304 -TSRA BKN015CB 
     BECMG 2309/2311 22015G25KT NSW 
     BECMG 2312/2314 27010KT
       
LFSB 221800Z 17006KT CAVOK 07/03 Q1011 NOSIG
TAF LFSB 221701Z 2218/2318 17005KT CAVOK 
     PROB40 
     TEMPO 2311/2315 23010KT
       
LFSD 221800Z AUTO 18006KT CAVOK 09/04 Q1011
LFSG 221800Z AUTO 17012KT CAVOK 10/04 Q1009
LFSI 221800Z AUTO 16008KT CAVOK 11/05 Q1008
TAF LFSI 221400Z 2215/2315 17010KT CAVOK 
     BECMG 2304/2306 18015G25KT
       
LFSL 221800Z AUTO 15009KT 110V180 CAVOK 13/06 Q1011 NOSIG
TAF LFSL 221700Z 2218/2303 14008KT CAVOK
       
LFSN 221800Z AUTO 16007KT CAVOK 09/04 Q1009
LFSO 221800Z AUTO 17010KT CAVOK 09/05 Q1009
TAF LFSO 221400Z 2215/2315 19008KT CAVOK 
     BECMG 2220/2222 19015G25KT 
     TEMPO 2307/2313 20015G35KT
       
LFST 221800Z AUTO 18003KT 170V240 CAVOK 09/05 Q1010 NOSIG
TAF LFST 221700Z 2218/2318 17007KT CAVOK 
     BECMG 2303/2306 20012G22KT
       
LFSX 221800Z AUTO 06004KT CAVOK 08/04 Q1011
TAF LFSX 221400Z 2215/2315 16007KT CAVOK
       
LFTH 221800Z AUTO 07004KT 9999 BKN021 BKN026 OVC031 15/11 Q1018 NOSIG
TAF LFTH 221400Z 2215/2315 11008KT 9999 FEW020 BKN040 
     BECMG 2222/2224 02010KT SCT012 BKN018 
     BECMG 2302/2304 BKN012 OVC018 
     BECMG 2310/2313 14006KT SCT025
       
LFTW 221800Z AUTO 14011KT 9999 SCT017 SCT024 BKN035 14/11 Q1016 TEMPO RA OVC005
TAF LFTW 221400Z 2215/2315 10003KT 9999 OVC013 
     BECMG 2215/2217 15010KT BKN015 
     TEMPO 2215/2309 RA OVC005
       
LFVP 221800Z 19003KT 160V220 CAVOK 08/04 Q1019 NOSIG
TAF LFVP 221700Z 2218/2303 12008KT CAVOK 
     TEMPO 2219/2222 3000 BR SCT005 SCT250 
     BECMG 2222/2224 16012KT 1200 BR BKN003 BKN250
       
LFYR 221800Z AUTO 16004KT 140V200 CAVOK 10/03 Q1006
LFRG 221800Z AUTO 19011KT 170V230 CAVOK 12/04 Q1000 BECMG 18020G32KT
TAF LFRG 221400Z 2215/2224 18015G25KT CAVOK 
     BECMG 2215/2218 18020G32KT 
     BECMG 2221/2224 20025G40KT
       
LFRN 221800Z AUTO 17012KT CAVOK 14/09 Q1000 TEMPO RA BECMG 18017G27KT
TAF LFRN 221700Z 2218/2318 18017G27KT CAVOK 
     BECMG 2221/2224 18025G40KT BKN030 
     TEMPO 2219/2224 5000 RA 
     TEMPO 2300/2304 20030G45KT 3000 TSRA BKN015CB 
     TEMPO 2304/2311 5000 RA BKN010 
     BECMG 2303/2306 23015G25KT 
     BECMG 2309/2312 26010KT 
     BECMG 2315/2318 17005KT
       
LFKF 221800Z AUTO 05006KT CAVOK 11/09 Q1019 TEMPO BKN014
TAF LFKF 221400Z 2215/2315 21010KT 9999 FEW030 
     TEMPO 2218/2309 BKN014 
     BECMG 2218/2221 04010KT
       
LFGJ 221800Z AUTO 19014KT CAVOK 12/07 Q1011 BECMG 19018G30KT
TAF LFGJ 221401Z 2215/2224 21012KT CAVOK 
     BECMG 2218/2221 19018G30KT
       
LFOB 221800Z AUTO 16010KT CAVOK 10/05 Q1003 NOSIG
TAF LFOB 221700Z 2218/2318 18010KT CAVOK 
     TEMPO 2313/2315 4000 RA BKN013 
     BECMG 2300/2303 19020G30KT 
     BECMG 2308/2310 23015G25KT 
     BECMG 2313/2315 26007KT
       
LFPN 221800Z AUTO 19011KT CAVOK 12/05 Q1004 TEMPO 18015G25KT
TAF LFPN 221700Z 2218/2303 18012KT CAVOK 
     TEMPO 2218/2224 18015G25KT 
     TEMPO 2300/2303 19015G30KT
       
LFOT 221800Z AUTO 18010KT CAVOK 13/04 Q1005 NOSIG
TAF LFOT 221700Z 2218/2318 18010KT CAVOK 
     BECMG 2221/2224 19018G30KT 
     TEMPO 2306/2313 4000 -RA BKN012 SCT020TCU 
     BECMG 2314/2316 20010KT 
     PROB30 
     TEMPO 2314/2318 -SHRA SCT020TCU
       
LFOP 221800Z AUTO 17012KT CAVOK 10/05 Q1002 NOSIG
TAF LFOP 221700Z 2218/2318 19010KT CAVOK 
     BECMG 2302/2304 20020G30KT 
     BECMG 2308/2311 26010KT 
     TEMPO 2310/2312 4000 RA BKN013 
     PROB30 
     TEMPO 2310/2312 TSRA
       
LFOK 221800Z AUTO 17013KT CAVOK 09/03 Q1006 NOSIG
TAF LFOK 221700Z 2218/2318 17012KT CAVOK 
     BECMG 2223/2301 18015G25KT 
     TEMPO 2304/2315 20020G30KT 
     BECMG 2315/2318 21013KT
       
LFPV 221800Z AUTO 18010KT CAVOK 12/04 Q1004 NOSIG
TAF LFPV 221400Z 2215/2315 19010KT CAVOK 
     BECMG 2220/2222 19015G25KT 
     TEMPO 2303/2312 21015G35KT
       
LFMU 221800Z AUTO 10011KT 9999 BKN030 BKN038 OVC046 15/13 Q1015 NOSIG
TAF LFMU 221400Z 2215/2315 08012KT 9999 OVC008 
     BECMG 2215/2217 12015KT BKN015 
     TEMPO 2300/2312 RA OVC005 
     BECMG 2304/2306 09005KT
       
LFPM 221800Z AUTO 15009KT CAVOK 10/05 Q1005